sensor_id;sensor_type;location;lat;lon;timestamp;pressure;altitude;pressure_sealevel;temperature;humidity
31717;BME280;18301;51.076;17.046;2022-11-21T00:01:59;99390.13;;;-1.81;75.28
31717;BME280;18301;51.076;17.046;2022-11-21T00:07:00;99381.88;;;-1.74;75.89
31717;BME280;18301;51.076;17.046;2022-11-21T00:12:02;99386.91;;;-1.68;75.38
31717;BME280;18301;51.076;17.046;2022-11-21T00:17:03;99378.94;;;-1.66;75.38
31717;BME280;18301;51.076;17.046;2022-11-21T00:22:05;99375.50;;;-1.70;75.53
31717;BME280;18301;51.076;17.046;2022-11-21T00:27:06;99366.56;;;-1.66;75.70
31717;BME280;18301;51.076;17.046;2022-11-21T00:32:07;99374.63;;;-1.69;76.01
31717;BME280;18301;51.076;17.046;2022-11-21T00:37:09;99370.59;;;-1.79;75.57
31717;BME280;18301;51.076;17.046;2022-11-21T00:42:10;99364.91;;;-1.90;76.99
31717;BME280;18301;51.076;17.046;2022-11-21T00:47:12;99362.38;;;-1.93;77.35
31717;BME280;18301;51.076;17.046;2022-11-21T00:52:13;99363.16;;;-1.91;77.63
31717;BME280;18301;51.076;17.046;2022-11-21T00:57:16;99358.78;;;-1.92;77.94
31717;BME280;18301;51.076;17.046;2022-11-21T01:02:17;99358.31;;;-1.80;78.00
31717;BME280;18301;51.076;17.046;2022-11-21T01:07:19;99340.16;;;-1.67;77.85
31717;BME280;18301;51.076;17.046;2022-11-21T01:12:20;99331.66;;;-1.53;77.64
31717;BME280;18301;51.076;17.046;2022-11-21T01:17:22;99300.91;;;-1.56;78.30
31717;BME280;18301;51.076;17.046;2022-11-21T01:22:23;99307.44;;;-1.65;77.67
31717;BME280;18301;51.076;17.046;2022-11-21T01:27:25;99312.47;;;-1.58;78.82
31717;BME280;18301;51.076;17.046;2022-11-21T01:32:26;99312.16;;;-1.51;78.63
31717;BME280;18301;51.076;17.046;2022-11-21T01:37:28;99292.38;;;-1.22;78.24
31717;BME280;18301;51.076;17.046;2022-11-21T01:42:47;99286.16;;;-1.21;78.46
31717;BME280;18301;51.076;17.046;2022-11-21T01:47:49;99278.88;;;-1.16;78.19
31717;BME280;18301;51.076;17.046;2022-11-21T01:52:50;99276.38;;;-1.19;77.91
31717;BME280;18301;51.076;17.046;2022-11-21T01:57:52;99283.31;;;-1.16;78.04
31717;BME280;18301;51.076;17.046;2022-11-21T02:02:58;99282.47;;;-1.17;78.62
31717;BME280;18301;51.076;17.046;2022-11-21T02:08:09;99268.56;;;-1.01;78.62
31717;BME280;18301;51.076;17.046;2022-11-21T02:13:12;99248.84;;;-0.96;78.30
31717;BME280;18301;51.076;17.046;2022-11-21T02:18:14;99247.88;;;-0.93;78.42
31717;BME280;18301;51.076;17.046;2022-11-21T02:23:26;99250.03;;;-0.82;78.42
31717;BME280;18301;51.076;17.046;2022-11-21T02:28:32;99245.84;;;-0.67;78.38
31717;BME280;18301;51.076;17.046;2022-11-21T02:33:34;99231.13;;;-0.56;78.29
31717;BME280;18301;51.076;17.046;2022-11-21T02:38:36;99224.69;;;-0.50;78.45
31717;BME280;18301;51.076;17.046;2022-11-21T02:43:45;99213.94;;;-0.47;78.63
31717;BME280;18301;51.076;17.046;2022-11-21T02:48:48;99199.94;;;-0.49;78.56
31717;BME280;18301;51.076;17.046;2022-11-21T02:53:49;99197.13;;;-0.46;78.91
31717;BME280;18301;51.076;17.046;2022-11-21T02:58:51;99194.78;;;-0.35;78.73
31717;BME280;18301;51.076;17.046;2022-11-21T03:03:52;99188.03;;;-0.23;78.59
31717;BME280;18301;51.076;17.046;2022-11-21T03:08:53;99174.19;;;-0.11;78.96
31717;BME280;18301;51.076;17.046;2022-11-21T03:13:55;99162.56;;;-0.08;79.31
31717;BME280;18301;51.076;17.046;2022-11-21T03:18:56;99160.56;;;-0.03;78.98
31717;BME280;18301;51.076;17.046;2022-11-21T03:23:58;99147.91;;;0.02;79.21
31717;BME280;18301;51.076;17.046;2022-11-21T03:28:59;99141.50;;;0.06;79.17
31717;BME280;18301;51.076;17.046;2022-11-21T03:34:01;99137.59;;;-0.04;79.84
31717;BME280;18301;51.076;17.046;2022-11-21T03:39:03;99127.75;;;0.15;79.05
31717;BME280;18301;51.076;17.046;2022-11-21T03:44:07;99098.91;;;0.09;79.20
31717;BME280;18301;51.076;17.046;2022-11-21T03:49:09;99097.50;;;0.19;79.41
31717;BME280;18301;51.076;17.046;2022-11-21T03:54:11;99091.72;;;0.11;79.71
31717;BME280;18301;51.076;17.046;2022-11-21T03:59:12;99090.25;;;0.06;80.33
31717;BME280;18301;51.076;17.046;2022-11-21T04:04:14;99078.94;;;0.02;80.21
31717;BME280;18301;51.076;17.046;2022-11-21T04:09:15;99072.78;;;0.02;80.13
31717;BME280;18301;51.076;17.046;2022-11-21T04:14:17;99078.47;;;0.11;80.37
31717;BME280;18301;51.076;17.046;2022-11-21T04:19:18;99071.47;;;0.10;80.63
31717;BME280;18301;51.076;17.046;2022-11-21T04:24:19;99066.44;;;0.21;80.10
31717;BME280;18301;51.076;17.046;2022-11-21T04:29:21;99051.47;;;0.20;80.12
31717;BME280;18301;51.076;17.046;2022-11-21T04:34:22;99046.31;;;0.17;80.46
31717;BME280;18301;51.076;17.046;2022-11-21T04:39:24;99036.88;;;0.12;80.67
31717;BME280;18301;51.076;17.046;2022-11-21T04:44:25;99026.63;;;0.21;81.11
31717;BME280;18301;51.076;17.046;2022-11-21T04:49:28;99020.41;;;0.22;80.73
31717;BME280;18301;51.076;17.046;2022-11-21T04:54:31;99015.88;;;0.25;80.69
31717;BME280;18301;51.076;17.046;2022-11-21T04:59:33;99012.28;;;0.26;80.83
31717;BME280;18301;51.076;17.046;2022-11-21T05:04:34;99007.47;;;0.16;81.15
31717;BME280;18301;51.076;17.046;2022-11-21T05:09:36;98999.19;;;0.22;80.94
31717;BME280;18301;51.076;17.046;2022-11-21T05:14:37;98998.06;;;0.27;81.39
31717;BME280;18301;51.076;17.046;2022-11-21T05:19:39;98993.97;;;0.37;81.28
31717;BME280;18301;51.076;17.046;2022-11-21T05:24:40;98982.16;;;0.42;81.34
31717;BME280;18301;51.076;17.046;2022-11-21T05:29:41;98974.88;;;0.46;81.54
31717;BME280;18301;51.076;17.046;2022-11-21T05:34:43;98970.03;;;0.54;81.55
31717;BME280;18301;51.076;17.046;2022-11-21T05:39:44;98957.88;;;0.50;81.50
31717;BME280;18301;51.076;17.046;2022-11-21T05:44:46;98951.63;;;0.51;81.49
31717;BME280;18301;51.076;17.046;2022-11-21T05:49:47;98937.50;;;0.51;81.11
31717;BME280;18301;51.076;17.046;2022-11-21T05:54:49;98927.38;;;0.57;81.20
31717;BME280;18301;51.076;17.046;2022-11-21T05:59:50;98939.13;;;0.53;81.12
31717;BME280;18301;51.076;17.046;2022-11-21T06:04:52;98925.06;;;0.51;80.92
31717;BME280;18301;51.076;17.046;2022-11-21T06:09:53;98919.00;;;0.49;81.23
31717;BME280;18301;51.076;17.046;2022-11-21T06:14:54;98922.25;;;0.54;80.79
31717;BME280;18301;51.076;17.046;2022-11-21T06:19:56;98919.59;;;0.54;81.27
31717;BME280;18301;51.076;17.046;2022-11-21T06:24:57;98907.97;;;0.57;81.65
31717;BME280;18301;51.076;17.046;2022-11-21T06:29:59;98903.44;;;0.59;81.46
31717;BME280;18301;51.076;17.046;2022-11-21T06:35:00;98908.97;;;0.54;81.39
31717;BME280;18301;51.076;17.046;2022-11-21T06:40:02;98903.59;;;0.56;81.78
31717;BME280;18301;51.076;17.046;2022-11-21T06:45:03;98906.44;;;0.53;81.67
31717;BME280;18301;51.076;17.046;2022-11-21T06:50:06;98906.31;;;0.54;81.41
31717;BME280;18301;51.076;17.046;2022-11-21T06:55:09;98905.38;;;0.55;81.66
31717;BME280;18301;51.076;17.046;2022-11-21T07:00:11;98909.66;;;0.58;82.16
31717;BME280;18301;51.076;17.046;2022-11-21T07:05:13;98898.38;;;0.54;82.08
31717;BME280;18301;51.076;17.046;2022-11-21T07:10:14;98908.88;;;0.72;82.01
31717;BME280;18301;51.076;17.046;2022-11-21T07:15:16;98917.94;;;0.67;82.39
31717;BME280;18301;51.076;17.046;2022-11-21T07:20:17;98903.03;;;0.81;82.11
31717;BME280;18301;51.076;17.046;2022-11-21T07:25:19;98907.81;;;0.90;82.34
31717;BME280;18301;51.076;17.046;2022-11-21T07:30:20;98903.84;;;0.97;82.33
31717;BME280;18301;51.076;17.046;2022-11-21T07:35:22;98914.13;;;1.03;82.33
31717;BME280;18301;51.076;17.046;2022-11-21T07:40:24;98914.13;;;1.03;82.59
31717;BME280;18301;51.076;17.046;2022-11-21T07:45:25;98901.38;;;1.24;82.37
31717;BME280;18301;51.076;17.046;2022-11-21T07:50:27;98902.63;;;1.33;82.41
31717;BME280;18301;51.076;17.046;2022-11-21T07:55:29;98904.03;;;1.38;82.43
31717;BME280;18301;51.076;17.046;2022-11-21T08:00:32;98899.44;;;1.42;82.75
31717;BME280;18301;51.076;17.046;2022-11-21T08:05:41;98895.25;;;1.52;83.03
31717;BME280;18301;51.076;17.046;2022-11-21T08:10:44;98892.88;;;1.62;82.94
31717;BME280;18301;51.076;17.046;2022-11-21T08:15:45;98892.25;;;1.73;83.10
31717;BME280;18301;51.076;17.046;2022-11-21T08:20:47;98894.88;;;1.87;83.55
31717;BME280;18301;51.076;17.046;2022-11-21T08:25:48;98904.19;;;2.08;83.01
31717;BME280;18301;51.076;17.046;2022-11-21T08:30:52;98899.22;;;2.31;82.99
31717;BME280;18301;51.076;17.046;2022-11-21T08:35:53;98885.31;;;2.40;83.37
31717;BME280;18301;51.076;17.046;2022-11-21T08:40:55;98890.78;;;2.51;83.16
31717;BME280;18301;51.076;17.046;2022-11-21T08:46:18;98894.56;;;2.62;82.75
31717;BME280;18301;51.076;17.046;2022-11-21T08:51:20;98908.88;;;2.73;83.51
31717;BME280;18301;51.076;17.046;2022-11-21T08:56:22;98899.06;;;2.74;83.24
31717;BME280;18301;51.076;17.046;2022-11-21T09:01:23;98901.72;;;2.74;84.49
31717;BME280;18301;51.076;17.046;2022-11-21T09:06:25;98901.25;;;2.82;83.92
31717;BME280;18301;51.076;17.046;2022-11-21T09:11:26;98908.09;;;2.98;83.03
31717;BME280;18301;51.076;17.046;2022-11-21T09:16:28;98911.88;;;3.09;83.90
31717;BME280;18301;51.076;17.046;2022-11-21T09:21:48;98906.16;;;3.15;83.75
31717;BME280;18301;51.076;17.046;2022-11-21T09:26:50;98896.97;;;3.19;83.56
31717;BME280;18301;51.076;17.046;2022-11-21T09:31:51;98903.59;;;3.26;84.55
31717;BME280;18301;51.076;17.046;2022-11-21T09:36:53;98905.09;;;3.30;84.02
31717;BME280;18301;51.076;17.046;2022-11-21T09:47:19;98901.47;;;3.18;84.72
31717;BME280;18301;51.076;17.046;2022-11-21T09:52:25;98908.97;;;3.39;84.30
31717;BME280;18301;51.076;17.046;2022-11-21T09:57:28;98909.59;;;3.42;85.01
31717;BME280;18301;51.076;17.046;2022-11-21T10:02:35;98917.72;;;3.54;85.27
31717;BME280;18301;51.076;17.046;2022-11-21T10:07:37;98907.25;;;3.51;86.08
31717;BME280;18301;51.076;17.046;2022-11-21T10:13:38;98893.94;;;3.76;85.36
31717;BME280;18301;51.076;17.046;2022-11-21T10:18:51;98892.94;;;4.03;86.18
31717;BME280;18301;51.076;17.046;2022-11-21T10:29:16;98894.97;;;4.49;85.52
31717;BME280;18301;51.076;17.046;2022-11-21T10:34:22;98888.06;;;4.70;86.13
31717;BME280;18301;51.076;17.046;2022-11-21T10:39:48;98894.44;;;4.80;86.20
31717;BME280;18301;51.076;17.046;2022-11-21T10:44:51;98895.47;;;4.91;86.09
31717;BME280;18301;51.076;17.046;2022-11-21T10:50:19;98893.69;;;5.02;85.41
31717;BME280;18301;51.076;17.046;2022-11-21T10:55:25;98897.97;;;5.05;85.69
31717;BME280;18301;51.076;17.046;2022-11-21T11:00:26;98890.19;;;5.13;85.13
31717;BME280;18301;51.076;17.046;2022-11-21T11:05:32;98893.00;;;5.12;84.47
31717;BME280;18301;51.076;17.046;2022-11-21T11:10:36;98891.34;;;4.98;84.89
31717;BME280;18301;51.076;17.046;2022-11-21T11:15:52;98888.88;;;4.83;85.54
31717;BME280;18301;51.076;17.046;2022-11-21T11:21:18;98890.44;;;4.86;85.27
31717;BME280;18301;51.076;17.046;2022-11-21T11:26:26;98898.91;;;5.04;85.33
31717;BME280;18301;51.076;17.046;2022-11-21T11:31:38;98910.28;;;5.19;84.86
31717;BME280;18301;51.076;17.046;2022-11-21T11:36:54;98904.09;;;5.18;84.96
31717;BME280;18301;51.076;17.046;2022-11-21T11:47:38;98909.25;;;5.44;84.60
31717;BME280;18301;51.076;17.046;2022-11-21T11:53:01;98904.66;;;5.57;84.61
31717;BME280;18301;51.076;17.046;2022-11-21T11:58:10;98908.84;;;5.72;84.20
31717;BME280;18301;51.076;17.046;2022-11-21T12:09:22;98919.81;;;5.81;83.67
31717;BME280;18301;51.076;17.046;2022-11-21T12:14:46;98920.03;;;5.77;82.37
31717;BME280;18301;51.076;17.046;2022-11-21T12:20:20;98942.03;;;6.05;80.47
31717;BME280;18301;51.076;17.046;2022-11-21T12:25:32;98950.09;;;5.81;80.42
31717;BME280;18301;51.076;17.046;2022-11-21T12:36:12;98968.81;;;5.11;82.04
31717;BME280;18301;51.076;17.046;2022-11-21T12:47:05;98996.22;;;5.01;81.91
31717;BME280;18301;51.076;17.046;2022-11-21T12:52:16;98988.22;;;5.01;81.89
31717;BME280;18301;51.076;17.046;2022-11-21T12:57:58;99000.34;;;4.45;83.81
31717;BME280;18301;51.076;17.046;2022-11-21T13:03:28;99003.75;;;4.59;82.83
31717;BME280;18301;51.076;17.046;2022-11-21T13:08:35;99006.53;;;4.45;83.98
31717;BME280;18301;51.076;17.046;2022-11-21T13:13:39;99020.81;;;4.70;82.74
31717;BME280;18301;51.076;17.046;2022-11-21T13:18:45;99023.63;;;4.43;83.51
31717;BME280;18301;51.076;17.046;2022-11-21T13:23:48;99040.50;;;4.30;83.60
31717;BME280;18301;51.076;17.046;2022-11-21T13:28:51;99036.88;;;4.57;82.45
31717;BME280;18301;51.076;17.046;2022-11-21T13:34:35;99038.91;;;4.15;84.22
31717;BME280;18301;51.076;17.046;2022-11-21T13:39:37;99041.03;;;4.35;84.27
31717;BME280;18301;51.076;17.046;2022-11-21T13:44:39;99065.28;;;4.20;84.34
31717;BME280;18301;51.076;17.046;2022-11-21T14:06:31;99080.34;;;3.68;84.01
31717;BME280;18301;51.076;17.046;2022-11-21T14:11:45;99083.59;;;3.86;83.11
31717;BME280;18301;51.076;17.046;2022-11-21T14:16:55;99078.47;;;3.83;82.53
31717;BME280;18301;51.076;17.046;2022-11-21T14:21:59;99095.06;;;3.61;83.34
31717;BME280;18301;51.076;17.046;2022-11-21T14:27:04;99100.78;;;3.55;83.18
31717;BME280;18301;51.076;17.046;2022-11-21T14:32:13;99104.28;;;3.42;83.17
31717;BME280;18301;51.076;17.046;2022-11-21T14:37:15;99113.97;;;3.02;84.36
31717;BME280;18301;51.076;17.046;2022-11-21T14:42:17;99107.38;;;3.49;82.21
31717;BME280;18301;51.076;17.046;2022-11-21T14:47:19;99106.00;;;3.29;82.37
31717;BME280;18301;51.076;17.046;2022-11-21T14:52:29;99110.63;;;3.54;81.10
31717;BME280;18301;51.076;17.046;2022-11-21T14:57:35;99123.34;;;3.36;82.03
31717;BME280;18301;51.076;17.046;2022-11-21T15:02:38;99120.50;;;3.25;81.89
31717;BME280;18301;51.076;17.046;2022-11-21T15:07:42;99103.84;;;3.21;81.79
31717;BME280;18301;51.076;17.046;2022-11-21T15:17:54;99118.19;;;3.33;81.05
31717;BME280;18301;51.076;17.046;2022-11-21T15:23:35;99133.28;;;2.91;82.72
31717;BME280;18301;51.076;17.046;2022-11-21T15:28:53;99137.09;;;2.87;82.15
31717;BME280;18301;51.076;17.046;2022-11-21T15:34:05;99144.13;;;2.88;82.04
31717;BME280;18301;51.076;17.046;2022-11-21T15:39:26;99146.22;;;3.12;81.35
31717;BME280;18301;51.076;17.046;2022-11-21T15:44:28;99156.69;;;2.72;81.96
31717;BME280;18301;51.076;17.046;2022-11-21T15:49:30;99155.19;;;2.82;80.92
31717;BME280;18301;51.076;17.046;2022-11-21T15:54:33;99159.06;;;2.18;81.93
31717;BME280;18301;51.076;17.046;2022-11-21T15:59:35;99162.63;;;2.33;81.14
31717;BME280;18301;51.076;17.046;2022-11-21T16:04:37;99159.72;;;2.37;81.44
31717;BME280;18301;51.076;17.046;2022-11-21T16:09:38;99160.13;;;2.60;79.78
31717;BME280;18301;51.076;17.046;2022-11-21T16:14:41;99166.97;;;2.64;79.32
31717;BME280;18301;51.076;17.046;2022-11-21T16:19:44;99168.88;;;2.62;79.48
31717;BME280;18301;51.076;17.046;2022-11-21T16:24:45;99161.59;;;2.35;80.41
31717;BME280;18301;51.076;17.046;2022-11-21T16:29:47;99153.59;;;2.35;81.11
31717;BME280;18301;51.076;17.046;2022-11-21T16:34:49;99142.03;;;2.50;81.17
31717;BME280;18301;51.076;17.046;2022-11-21T16:39:51;99151.25;;;2.45;80.71
31717;BME280;18301;51.076;17.046;2022-11-21T16:44:53;99146.00;;;2.29;79.84
31717;BME280;18301;51.076;17.046;2022-11-21T16:49:55;99141.03;;;2.23;80.08
31717;BME280;18301;51.076;17.046;2022-11-21T16:54:56;99156.03;;;2.10;79.60
31717;BME280;18301;51.076;17.046;2022-11-21T16:59:58;99158.88;;;2.21;79.41
31717;BME280;18301;51.076;17.046;2022-11-21T17:05:01;99160.63;;;2.22;78.37
31717;BME280;18301;51.076;17.046;2022-11-21T17:10:02;99162.75;;;2.31;78.31
31717;BME280;18301;51.076;17.046;2022-11-21T17:15:06;99154.66;;;2.02;78.69
31717;BME280;18301;51.076;17.046;2022-11-21T17:20:09;99162.69;;;2.17;78.58
31717;BME280;18301;51.076;17.046;2022-11-21T17:25:11;99175.72;;;2.21;79.03
31717;BME280;18301;51.076;17.046;2022-11-21T17:30:13;99171.44;;;2.19;79.85
31717;BME280;18301;51.076;17.046;2022-11-21T17:35:16;99163.78;;;2.28;79.55
31717;BME280;18301;51.076;17.046;2022-11-21T17:40:17;99168.81;;;2.33;78.87
31717;BME280;18301;51.076;17.046;2022-11-21T17:45:19;99166.59;;;1.95;79.60
31717;BME280;18301;51.076;17.046;2022-11-21T17:50:20;99175.03;;;2.18;78.95
31717;BME280;18301;51.076;17.046;2022-11-21T17:55:22;99183.91;;;2.02;79.55
31717;BME280;18301;51.076;17.046;2022-11-21T18:00:24;99190.59;;;2.40;78.70
31717;BME280;18301;51.076;17.046;2022-11-21T18:05:25;99192.19;;;2.28;79.43
31717;BME280;18301;51.076;17.046;2022-11-21T18:10:27;99192.56;;;2.22;79.23
31717;BME280;18301;51.076;17.046;2022-11-21T18:15:43;99188.13;;;2.06;79.29
31717;BME280;18301;51.076;17.046;2022-11-21T18:20:45;99171.88;;;1.65;79.81
31717;BME280;18301;51.076;17.046;2022-11-21T18:25:47;99180.44;;;1.86;78.96
31717;BME280;18301;51.076;17.046;2022-11-21T18:30:48;99178.03;;;1.81;79.70
31717;BME280;18301;51.076;17.046;2022-11-21T18:35:50;99175.03;;;1.88;78.87
31717;BME280;18301;51.076;17.046;2022-11-21T18:40:51;99165.47;;;1.99;78.40
31717;BME280;18301;51.076;17.046;2022-11-21T18:45:53;99173.06;;;1.91;78.91
31717;BME280;18301;51.076;17.046;2022-11-21T18:50:55;99167.84;;;2.20;78.40
31717;BME280;18301;51.076;17.046;2022-11-21T18:55:57;99171.63;;;2.16;77.83
31717;BME280;18301;51.076;17.046;2022-11-21T19:01:00;99169.41;;;2.08;78.65
31717;BME280;18301;51.076;17.046;2022-11-21T19:06:06;99166.56;;;2.11;77.88
31717;BME280;18301;51.076;17.046;2022-11-21T19:11:10;99153.38;;;2.10;77.66
31717;BME280;18301;51.076;17.046;2022-11-21T19:16:14;99161.88;;;2.00;77.85
31717;BME280;18301;51.076;17.046;2022-11-21T19:21:16;99163.94;;;1.95;77.51
31717;BME280;18301;51.076;17.046;2022-11-21T19:26:18;99166.84;;;2.06;78.35
31717;BME280;18301;51.076;17.046;2022-11-21T19:31:23;99164.00;;;2.10;78.32
31717;BME280;18301;51.076;17.046;2022-11-21T19:36:24;99162.03;;;2.13;77.76
31717;BME280;18301;51.076;17.046;2022-11-21T19:41:27;99166.75;;;2.08;77.30
31717;BME280;18301;51.076;17.046;2022-11-21T19:46:33;99159.84;;;2.20;77.49
31717;BME280;18301;51.076;17.046;2022-11-21T19:51:40;99152.47;;;2.25;77.72
31717;BME280;18301;51.076;17.046;2022-11-21T19:56:42;99172.25;;;2.35;77.35
31717;BME280;18301;51.076;17.046;2022-11-21T20:01:43;99155.13;;;2.39;76.59
31717;BME280;18301;51.076;17.046;2022-11-21T20:06:52;99175.41;;;2.42;76.05
31717;BME280;18301;51.076;17.046;2022-11-21T20:11:55;99181.56;;;2.42;76.24
31717;BME280;18301;51.076;17.046;2022-11-21T20:16:56;99184.03;;;2.45;76.62
31717;BME280;18301;51.076;17.046;2022-11-21T20:21:58;99181.38;;;2.45;75.99
31717;BME280;18301;51.076;17.046;2022-11-21T20:27:00;99180.81;;;2.40;76.46
31717;BME280;18301;51.076;17.046;2022-11-21T20:32:02;99189.56;;;2.42;77.04
31717;BME280;18301;51.076;17.046;2022-11-21T20:37:04;99197.34;;;2.45;76.82
31717;BME280;18301;51.076;17.046;2022-11-21T20:42:05;99207.25;;;2.43;76.93
31717;BME280;18301;51.076;17.046;2022-11-21T20:47:08;99185.25;;;2.40;77.74
31717;BME280;18301;51.076;17.046;2022-11-21T20:52:10;99188.22;;;2.35;77.65
31717;BME280;18301;51.076;17.046;2022-11-21T20:57:31;99175.69;;;2.37;77.91
31717;BME280;18301;51.076;17.046;2022-11-21T21:02:33;99185.19;;;2.41;77.64
31717;BME280;18301;51.076;17.046;2022-11-21T21:07:35;99181.50;;;2.44;78.16
31717;BME280;18301;51.076;17.046;2022-11-21T21:12:36;99174.06;;;2.49;78.09
31717;BME280;18301;51.076;17.046;2022-11-21T21:17:38;99150.84;;;2.37;78.95
31717;BME280;18301;51.076;17.046;2022-11-21T21:22:40;99156.09;;;2.38;78.19
31717;BME280;18301;51.076;17.046;2022-11-21T21:27:42;99144.47;;;2.25;78.02
31717;BME280;18301;51.076;17.046;2022-11-21T21:32:44;99144.09;;;2.31;78.45
31717;BME280;18301;51.076;17.046;2022-11-21T21:37:45;99140.66;;;2.29;78.38
31717;BME280;18301;51.076;17.046;2022-11-21T21:42:48;99125.25;;;2.20;78.70
31717;BME280;18301;51.076;17.046;2022-11-21T21:47:50;99121.81;;;2.18;78.68
31717;BME280;18301;51.076;17.046;2022-11-21T21:52:51;99126.94;;;2.21;78.92
31717;BME280;18301;51.076;17.046;2022-11-21T21:57:54;99106.03;;;2.15;78.60
31717;BME280;18301;51.076;17.046;2022-11-21T22:02:56;99104.16;;;2.17;78.71
31717;BME280;18301;51.076;17.046;2022-11-21T22:07:57;99121.16;;;2.14;78.74
31717;BME280;18301;51.076;17.046;2022-11-21T22:12:59;99111.28;;;2.16;79.55
31717;BME280;18301;51.076;17.046;2022-11-21T22:18:01;99107.16;;;2.11;79.56
31717;BME280;18301;51.076;17.046;2022-11-21T22:23:03;99102.75;;;1.95;79.75
31717;BME280;18301;51.076;17.046;2022-11-21T22:28:04;99093.38;;;2.04;79.96
31717;BME280;18301;51.076;17.046;2022-11-21T22:33:06;99099.25;;;2.09;79.28
31717;BME280;18301;51.076;17.046;2022-11-21T22:38:08;99116.72;;;1.99;80.39
31717;BME280;18301;51.076;17.046;2022-11-21T22:43:09;99127.31;;;2.00;80.04
31717;BME280;18301;51.076;17.046;2022-11-21T22:48:11;99117.22;;;2.05;80.42
31717;BME280;18301;51.076;17.046;2022-11-21T22:53:14;99111.91;;;2.05;80.00
31717;BME280;18301;51.076;17.046;2022-11-21T22:58:16;99112.19;;;2.15;80.29
31717;BME280;18301;51.076;17.046;2022-11-21T23:03:17;99105.47;;;2.24;80.00
31717;BME280;18301;51.076;17.046;2022-11-21T23:08:19;99101.56;;;2.15;80.32
31717;BME280;18301;51.076;17.046;2022-11-21T23:13:20;99102.44;;;2.16;80.83
31717;BME280;18301;51.076;17.046;2022-11-21T23:18:22;99099.19;;;2.11;80.14
31717;BME280;18301;51.076;17.046;2022-11-21T23:23:24;99117.53;;;2.15;80.23
31717;BME280;18301;51.076;17.046;2022-11-21T23:28:26;99126.41;;;2.16;80.71
31717;BME280;18301;51.076;17.046;2022-11-21T23:33:28;99139.00;;;2.12;80.79
31717;BME280;18301;51.076;17.046;2022-11-21T23:38:30;99123.91;;;2.13;80.55
31717;BME280;18301;51.076;17.046;2022-11-21T23:43:32;99126.47;;;2.14;80.74
31717;BME280;18301;51.076;17.046;2022-11-21T23:48:34;99103.41;;;2.29;80.43
31717;BME280;18301;51.076;17.046;2022-11-21T23:53:35;99101.50;;;2.31;80.52
31717;BME280;18301;51.076;17.046;2022-11-21T23:58:37;99098.28;;;2.40;80.56
